sensor_id;sensor_type;location;lat;lon;timestamp;temperature;humidity
8914;DHT22;4492;48.736;9.092;2023-01-19T00:01:52;-4.50;99.90
8914;DHT22;4492;48.736;9.092;2023-01-19T00:04:18;-4.40;99.90
8914;DHT22;4492;48.736;9.092;2023-01-19T00:06:43;-4.50;99.90
8914;DHT22;4492;48.736;9.092;2023-01-19T00:09:09;-4.50;99.90
8914;DHT22;4492;48.736;9.092;2023-01-19T00:11:34;-4.50;99.90
8914;DHT22;4492;48.736;9.092;2023-01-19T00:14:00;-4.50;99.90
8914;DHT22;4492;48.736;9.092;2023-01-19T00:16:25;-4.50;99.90
8914;DHT22;4492;48.736;9.092;2023-01-19T00:18:51;-4.50;99.90
8914;DHT22;4492;48.736;9.092;2023-01-19T00:21:17;-4.50;99.90
8914;DHT22;4492;48.736;9.092;2023-01-19T00:23:43;-4.40;99.90
8914;DHT22;4492;48.736;9.092;2023-01-19T00:26:14;-4.40;99.90
8914;DHT22;4492;48.736;9.092;2023-01-19T00:28:41;-4.50;99.90
8914;DHT22;4492;48.736;9.092;2023-01-19T00:31:07;-4.50;99.90
8914;DHT22;4492;48.736;9.092;2023-01-19T00:33:33;-4.50;99.90
8914;DHT22;4492;48.736;9.092;2023-01-19T00:35:58;-4.50;99.90
8914;DHT22;4492;48.736;9.092;2023-01-19T00:38:24;-4.50;99.90
8914;DHT22;4492;48.736;9.092;2023-01-19T00:40:49;-4.40;99.90
8914;DHT22;4492;48.736;9.092;2023-01-19T00:43:15;-4.50;99.90
8914;DHT22;4492;48.736;9.092;2023-01-19T00:45:44;-4.50;99.90
8914;DHT22;4492;48.736;9.092;2023-01-19T00:48:10;-4.50;99.90
8914;DHT22;4492;48.736;9.092;2023-01-19T00:50:35;-4.50;99.90
8914;DHT22;4492;48.736;9.092;2023-01-19T00:53:01;-4.50;99.90
8914;DHT22;4492;48.736;9.092;2023-01-19T00:55:27;-4.60;99.90
8914;DHT22;4492;48.736;9.092;2023-01-19T00:57:54;-4.60;99.90
8914;DHT22;4492;48.736;9.092;2023-01-19T01:00:20;-4.70;99.90
8914;DHT22;4492;48.736;9.092;2023-01-19T01:02:46;-4.70;99.90
8914;DHT22;4492;48.736;9.092;2023-01-19T01:05:12;-4.70;99.90
8914;DHT22;4492;48.736;9.092;2023-01-19T01:07:39;-4.70;99.90
8914;DHT22;4492;48.736;9.092;2023-01-19T01:10:26;-4.70;99.90
8914;DHT22;4492;48.736;9.092;2023-01-19T01:12:52;-4.60;99.90
8914;DHT22;4492;48.736;9.092;2023-01-19T01:15:18;-4.60;99.90
8914;DHT22;4492;48.736;9.092;2023-01-19T01:17:44;-4.60;99.90
8914;DHT22;4492;48.736;9.092;2023-01-19T01:20:17;-4.60;99.90
8914;DHT22;4492;48.736;9.092;2023-01-19T01:22:46;-4.60;99.90
8914;DHT22;4492;48.736;9.092;2023-01-19T01:25:16;-4.60;99.90
8914;DHT22;4492;48.736;9.092;2023-01-19T01:27:43;-4.60;99.90
8914;DHT22;4492;48.736;9.092;2023-01-19T01:30:10;-4.60;99.90
8914;DHT22;4492;48.736;9.092;2023-01-19T01:32:36;-4.50;99.90
8914;DHT22;4492;48.736;9.092;2023-01-19T01:35:02;-4.50;99.90
8914;DHT22;4492;48.736;9.092;2023-01-19T01:37:28;-4.60;99.90
8914;DHT22;4492;48.736;9.092;2023-01-19T01:39:53;-4.60;99.90
8914;DHT22;4492;48.736;9.092;2023-01-19T01:42:23;-4.60;99.90
8914;DHT22;4492;48.736;9.092;2023-01-19T01:44:51;-4.60;99.90
8914;DHT22;4492;48.736;9.092;2023-01-19T01:47:22;-4.70;99.90
8914;DHT22;4492;48.736;9.092;2023-01-19T01:50:00;-4.70;99.90
8914;DHT22;4492;48.736;9.092;2023-01-19T01:52:28;-4.70;99.90
8914;DHT22;4492;48.736;9.092;2023-01-19T01:54:56;-4.80;99.90
8914;DHT22;4492;48.736;9.092;2023-01-19T01:57:22;-4.80;99.90
8914;DHT22;4492;48.736;9.092;2023-01-19T01:59:53;-4.80;99.90
8914;DHT22;4492;48.736;9.092;2023-01-19T02:02:23;-4.80;99.90
8914;DHT22;4492;48.736;9.092;2023-01-19T02:05:16;-4.80;99.90
8914;DHT22;4492;48.736;9.092;2023-01-19T02:10:45;-4.80;99.90
8914;DHT22;4492;48.736;9.092;2023-01-19T02:13:33;-4.90;99.90
8914;DHT22;4492;48.736;9.092;2023-01-19T02:16:05;-4.80;99.90
8914;DHT22;4492;48.736;9.092;2023-01-19T02:18:31;-4.80;99.90
8914;DHT22;4492;48.736;9.092;2023-01-19T02:23:44;-4.90;99.90
8914;DHT22;4492;48.736;9.092;2023-01-19T02:26:40;-4.90;99.90
8914;DHT22;4492;48.736;9.092;2023-01-19T02:29:12;-4.90;99.90
8914;DHT22;4492;48.736;9.092;2023-01-19T02:31:39;-4.80;99.90
8914;DHT22;4492;48.736;9.092;2023-01-19T02:34:08;-4.80;99.90
8914;DHT22;4492;48.736;9.092;2023-01-19T02:39:15;-4.70;99.90
8914;DHT22;4492;48.736;9.092;2023-01-19T02:41:46;-4.60;99.90
8914;DHT22;4492;48.736;9.092;2023-01-19T02:44:14;-4.60;99.90
8914;DHT22;4492;48.736;9.092;2023-01-19T02:46:41;-4.60;99.90
8914;DHT22;4492;48.736;9.092;2023-01-19T02:49:06;-4.60;99.90
8914;DHT22;4492;48.736;9.092;2023-01-19T02:51:32;-4.50;99.90
8914;DHT22;4492;48.736;9.092;2023-01-19T02:54:45;-4.50;99.90
8914;DHT22;4492;48.736;9.092;2023-01-19T03:02:52;-4.50;99.90
8914;DHT22;4492;48.736;9.092;2023-01-19T03:08:26;-4.40;99.90
8914;DHT22;4492;48.736;9.092;2023-01-19T03:16:23;-4.40;99.90
8914;DHT22;4492;48.736;9.092;2023-01-19T03:18:58;-4.40;99.90
8914;DHT22;4492;48.736;9.092;2023-01-19T03:21:28;-4.40;99.90
8914;DHT22;4492;48.736;9.092;2023-01-19T03:23:58;-4.40;99.90
8914;DHT22;4492;48.736;9.092;2023-01-19T03:26:27;-4.40;99.90
8914;DHT22;4492;48.736;9.092;2023-01-19T03:28:55;-4.40;99.90
8914;DHT22;4492;48.736;9.092;2023-01-19T03:31:26;-4.50;99.90
8914;DHT22;4492;48.736;9.092;2023-01-19T03:33:55;-4.50;99.90
8914;DHT22;4492;48.736;9.092;2023-01-19T03:36:32;-4.50;99.90
8914;DHT22;4492;48.736;9.092;2023-01-19T03:39:00;-4.50;99.90
8914;DHT22;4492;48.736;9.092;2023-01-19T03:41:27;-4.50;99.90
8914;DHT22;4492;48.736;9.092;2023-01-19T03:43:54;-4.50;99.90
8914;DHT22;4492;48.736;9.092;2023-01-19T03:46:22;-4.50;99.90
8914;DHT22;4492;48.736;9.092;2023-01-19T03:48:48;-4.60;99.90
8914;DHT22;4492;48.736;9.092;2023-01-19T03:51:15;-4.60;99.90
8914;DHT22;4492;48.736;9.092;2023-01-19T03:53:41;-4.70;99.90
8914;DHT22;4492;48.736;9.092;2023-01-19T03:56:25;-4.70;99.90
8914;DHT22;4492;48.736;9.092;2023-01-19T03:58:51;-4.80;99.90
8914;DHT22;4492;48.736;9.092;2023-01-19T04:01:18;-4.80;99.90
8914;DHT22;4492;48.736;9.092;2023-01-19T04:03:47;-4.90;99.90
8914;DHT22;4492;48.736;9.092;2023-01-19T04:06:13;-4.90;99.90
8914;DHT22;4492;48.736;9.092;2023-01-19T04:08:38;-4.90;99.90
8914;DHT22;4492;48.736;9.092;2023-01-19T04:11:05;-4.90;99.90
8914;DHT22;4492;48.736;9.092;2023-01-19T04:13:30;-4.90;99.90
8914;DHT22;4492;48.736;9.092;2023-01-19T04:16:00;-4.90;99.90
8914;DHT22;4492;48.736;9.092;2023-01-19T04:18:29;-4.90;99.90
8914;DHT22;4492;48.736;9.092;2023-01-19T04:21:03;-4.90;99.90
8914;DHT22;4492;48.736;9.092;2023-01-19T04:23:28;-4.90;99.90
8914;DHT22;4492;48.736;9.092;2023-01-19T04:26:01;-4.90;99.90
8914;DHT22;4492;48.736;9.092;2023-01-19T04:28:27;-4.90;99.90
8914;DHT22;4492;48.736;9.092;2023-01-19T04:30:53;-4.90;99.90
8914;DHT22;4492;48.736;9.092;2023-01-19T04:33:19;-4.90;99.90
8914;DHT22;4492;48.736;9.092;2023-01-19T04:35:46;-5.00;99.90
8914;DHT22;4492;48.736;9.092;2023-01-19T04:38:12;-5.00;99.90
8914;DHT22;4492;48.736;9.092;2023-01-19T04:40:37;-5.00;99.90
8914;DHT22;4492;48.736;9.092;2023-01-19T04:43:03;-5.00;99.90
8914;DHT22;4492;48.736;9.092;2023-01-19T04:45:28;-5.00;99.90
8914;DHT22;4492;48.736;9.092;2023-01-19T04:47:54;-5.00;99.90
8914;DHT22;4492;48.736;9.092;2023-01-19T04:50:19;-5.00;99.90
8914;DHT22;4492;48.736;9.092;2023-01-19T04:52:45;-5.00;99.90
8914;DHT22;4492;48.736;9.092;2023-01-19T04:55:11;-5.00;99.90
8914;DHT22;4492;48.736;9.092;2023-01-19T04:57:37;-4.90;99.90
8914;DHT22;4492;48.736;9.092;2023-01-19T05:00:04;-4.90;99.90
8914;DHT22;4492;48.736;9.092;2023-01-19T05:02:31;-4.90;99.90
8914;DHT22;4492;48.736;9.092;2023-01-19T05:04:56;-5.00;99.90
8914;DHT22;4492;48.736;9.092;2023-01-19T05:07:22;-5.00;99.90
8914;DHT22;4492;48.736;9.092;2023-01-19T05:09:48;-4.90;99.90
8914;DHT22;4492;48.736;9.092;2023-01-19T05:12:13;-4.90;99.90
8914;DHT22;4492;48.736;9.092;2023-01-19T05:14:39;-4.90;99.90
8914;DHT22;4492;48.736;9.092;2023-01-19T05:17:04;-4.90;99.90
8914;DHT22;4492;48.736;9.092;2023-01-19T05:19:30;-4.90;99.90
8914;DHT22;4492;48.736;9.092;2023-01-19T05:21:55;-4.90;99.90
8914;DHT22;4492;48.736;9.092;2023-01-19T05:24:21;-4.80;99.90
8914;DHT22;4492;48.736;9.092;2023-01-19T05:26:46;-4.80;99.90
8914;DHT22;4492;48.736;9.092;2023-01-19T05:29:12;-4.80;99.90
8914;DHT22;4492;48.736;9.092;2023-01-19T05:31:38;-4.80;99.90
8914;DHT22;4492;48.736;9.092;2023-01-19T05:34:03;-4.80;99.90
8914;DHT22;4492;48.736;9.092;2023-01-19T05:36:29;-4.80;99.90
8914;DHT22;4492;48.736;9.092;2023-01-19T05:38:55;-4.80;99.90
8914;DHT22;4492;48.736;9.092;2023-01-19T05:41:20;-4.70;99.90
8914;DHT22;4492;48.736;9.092;2023-01-19T05:43:46;-4.70;99.90
8914;DHT22;4492;48.736;9.092;2023-01-19T05:46:12;-4.70;99.90
8914;DHT22;4492;48.736;9.092;2023-01-19T05:48:37;-4.70;99.90
8914;DHT22;4492;48.736;9.092;2023-01-19T05:51:03;-4.60;99.90
8914;DHT22;4492;48.736;9.092;2023-01-19T05:53:29;-4.70;99.90
8914;DHT22;4492;48.736;9.092;2023-01-19T05:56:03;-4.60;99.90
8914;DHT22;4492;48.736;9.092;2023-01-19T05:58:29;-4.60;99.90
8914;DHT22;4492;48.736;9.092;2023-01-19T06:00:55;-4.60;99.90
8914;DHT22;4492;48.736;9.092;2023-01-19T06:03:20;-4.60;99.90
8914;DHT22;4492;48.736;9.092;2023-01-19T06:05:46;-4.50;99.90
8914;DHT22;4492;48.736;9.092;2023-01-19T06:08:11;-4.50;99.90
8914;DHT22;4492;48.736;9.092;2023-01-19T06:10:37;-4.50;99.90
8914;DHT22;4492;48.736;9.092;2023-01-19T06:13:03;-4.60;99.90
8914;DHT22;4492;48.736;9.092;2023-01-19T06:15:28;-4.60;99.90
8914;DHT22;4492;48.736;9.092;2023-01-19T06:17:54;-4.60;99.90
8914;DHT22;4492;48.736;9.092;2023-01-19T06:20:19;-4.60;99.90
8914;DHT22;4492;48.736;9.092;2023-01-19T06:22:45;-4.60;99.90
8914;DHT22;4492;48.736;9.092;2023-01-19T06:25:11;-4.60;99.90
8914;DHT22;4492;48.736;9.092;2023-01-19T06:27:37;-4.60;99.90
8914;DHT22;4492;48.736;9.092;2023-01-19T06:30:04;-4.60;99.90
8914;DHT22;4492;48.736;9.092;2023-01-19T06:32:31;-4.60;99.90
8914;DHT22;4492;48.736;9.092;2023-01-19T06:34:56;-4.60;99.90
8914;DHT22;4492;48.736;9.092;2023-01-19T06:37:22;-4.70;99.90
8914;DHT22;4492;48.736;9.092;2023-01-19T06:39:49;-4.70;99.90
8914;DHT22;4492;48.736;9.092;2023-01-19T06:42:14;-4.60;99.90
8914;DHT22;4492;48.736;9.092;2023-01-19T06:44:40;-4.60;99.90
8914;DHT22;4492;48.736;9.092;2023-01-19T06:47:11;-4.50;99.90
8914;DHT22;4492;48.736;9.092;2023-01-19T06:49:37;-4.40;99.90
8914;DHT22;4492;48.736;9.092;2023-01-19T06:52:03;-4.40;99.90
8914;DHT22;4492;48.736;9.092;2023-01-19T06:54:29;-4.40;99.90
8914;DHT22;4492;48.736;9.092;2023-01-19T06:56:54;-4.40;99.90
8914;DHT22;4492;48.736;9.092;2023-01-19T06:59:20;-4.40;99.90
8914;DHT22;4492;48.736;9.092;2023-01-19T07:01:45;-4.40;99.90
8914;DHT22;4492;48.736;9.092;2023-01-19T07:04:11;-4.50;99.90
8914;DHT22;4492;48.736;9.092;2023-01-19T07:06:38;-4.50;99.90
8914;DHT22;4492;48.736;9.092;2023-01-19T07:09:04;-4.50;99.90
8914;DHT22;4492;48.736;9.092;2023-01-19T07:11:32;-4.50;99.90
8914;DHT22;4492;48.736;9.092;2023-01-19T07:13:57;-4.40;99.90
8914;DHT22;4492;48.736;9.092;2023-01-19T07:16:23;-4.40;99.90
8914;DHT22;4492;48.736;9.092;2023-01-19T07:18:49;-4.30;99.90
8914;DHT22;4492;48.736;9.092;2023-01-19T07:21:15;-4.30;99.90
8914;DHT22;4492;48.736;9.092;2023-01-19T07:23:41;-4.30;99.90
8914;DHT22;4492;48.736;9.092;2023-01-19T07:26:08;-4.20;99.90
8914;DHT22;4492;48.736;9.092;2023-01-19T07:28:34;-4.20;99.90
8914;DHT22;4492;48.736;9.092;2023-01-19T07:31:01;-4.10;99.90
8914;DHT22;4492;48.736;9.092;2023-01-19T07:33:28;-4.10;99.90
8914;DHT22;4492;48.736;9.092;2023-01-19T07:35:54;-4.10;99.90
8914;DHT22;4492;48.736;9.092;2023-01-19T07:38:20;-4.10;99.90
8914;DHT22;4492;48.736;9.092;2023-01-19T07:40:45;-4.10;99.90
8914;DHT22;4492;48.736;9.092;2023-01-19T07:43:12;-4.10;99.90
8914;DHT22;4492;48.736;9.092;2023-01-19T07:45:37;-4.10;99.90
8914;DHT22;4492;48.736;9.092;2023-01-19T07:48:03;-4.00;99.90
8914;DHT22;4492;48.736;9.092;2023-01-19T07:50:29;-4.00;99.90
8914;DHT22;4492;48.736;9.092;2023-01-19T07:52:55;-4.00;99.90
8914;DHT22;4492;48.736;9.092;2023-01-19T07:55:21;-3.90;99.90
8914;DHT22;4492;48.736;9.092;2023-01-19T07:57:50;-3.90;99.90
8914;DHT22;4492;48.736;9.092;2023-01-19T08:00:20;-3.90;99.90
8914;DHT22;4492;48.736;9.092;2023-01-19T08:02:49;-3.80;99.90
8914;DHT22;4492;48.736;9.092;2023-01-19T08:05:16;-3.80;99.90
8914;DHT22;4492;48.736;9.092;2023-01-19T08:07:42;-3.80;99.90
8914;DHT22;4492;48.736;9.092;2023-01-19T08:10:11;-3.80;99.90
8914;DHT22;4492;48.736;9.092;2023-01-19T08:12:37;-3.80;99.90
8914;DHT22;4492;48.736;9.092;2023-01-19T08:15:02;-3.70;99.90
8914;DHT22;4492;48.736;9.092;2023-01-19T08:17:28;-3.70;99.90
8914;DHT22;4492;48.736;9.092;2023-01-19T08:19:53;-3.60;99.90
8914;DHT22;4492;48.736;9.092;2023-01-19T08:22:19;-3.60;99.90
8914;DHT22;4492;48.736;9.092;2023-01-19T08:24:44;-3.50;99.90
8914;DHT22;4492;48.736;9.092;2023-01-19T08:27:10;-3.50;99.90
8914;DHT22;4492;48.736;9.092;2023-01-19T08:29:35;-3.40;99.90
8914;DHT22;4492;48.736;9.092;2023-01-19T08:32:01;-3.50;99.90
8914;DHT22;4492;48.736;9.092;2023-01-19T08:34:31;-3.40;99.90
8914;DHT22;4492;48.736;9.092;2023-01-19T08:36:57;-3.30;99.90
8914;DHT22;4492;48.736;9.092;2023-01-19T08:39:23;-3.30;99.90
8914;DHT22;4492;48.736;9.092;2023-01-19T08:41:50;-3.20;99.90
8914;DHT22;4492;48.736;9.092;2023-01-19T08:44:16;-3.20;99.90
8914;DHT22;4492;48.736;9.092;2023-01-19T08:46:41;-3.10;99.90
8914;DHT22;4492;48.736;9.092;2023-01-19T08:49:07;-3.10;99.90
8914;DHT22;4492;48.736;9.092;2023-01-19T08:51:33;-3.00;99.90
8914;DHT22;4492;48.736;9.092;2023-01-19T08:53:59;-2.90;99.90
8914;DHT22;4492;48.736;9.092;2023-01-19T08:56:25;-2.80;99.90
8914;DHT22;4492;48.736;9.092;2023-01-19T08:58:50;-2.60;99.90
8914;DHT22;4492;48.736;9.092;2023-01-19T09:01:16;-2.50;99.90
8914;DHT22;4492;48.736;9.092;2023-01-19T09:03:43;-2.40;99.90
8914;DHT22;4492;48.736;9.092;2023-01-19T09:06:11;-2.30;99.90
8914;DHT22;4492;48.736;9.092;2023-01-19T09:08:37;-2.30;99.90
8914;DHT22;4492;48.736;9.092;2023-01-19T09:11:03;-2.20;99.90
8914;DHT22;4492;48.736;9.092;2023-01-19T09:13:29;-2.20;99.90
8914;DHT22;4492;48.736;9.092;2023-01-19T09:15:55;-2.00;99.90
8914;DHT22;4492;48.736;9.092;2023-01-19T09:18:21;-1.90;99.90
8914;DHT22;4492;48.736;9.092;2023-01-19T09:20:48;-1.70;99.90
8914;DHT22;4492;48.736;9.092;2023-01-19T09:23:17;-1.60;99.90
8914;DHT22;4492;48.736;9.092;2023-01-19T09:25:44;-1.50;99.90
8914;DHT22;4492;48.736;9.092;2023-01-19T09:28:11;-1.40;99.90
8914;DHT22;4492;48.736;9.092;2023-01-19T09:30:39;-1.30;99.90
8914;DHT22;4492;48.736;9.092;2023-01-19T09:33:07;-1.20;99.90
8914;DHT22;4492;48.736;9.092;2023-01-19T09:35:36;-1.10;99.90
8914;DHT22;4492;48.736;9.092;2023-01-19T09:38:01;-1.00;99.90
8914;DHT22;4492;48.736;9.092;2023-01-19T09:40:28;-0.90;99.90
8914;DHT22;4492;48.736;9.092;2023-01-19T09:45:59;-0.90;99.90
8914;DHT22;4492;48.736;9.092;2023-01-19T09:51:03;-0.90;99.90
8914;DHT22;4492;48.736;9.092;2023-01-19T09:56:23;-0.70;99.90
8914;DHT22;4492;48.736;9.092;2023-01-19T09:58:50;-0.70;99.90
8914;DHT22;4492;48.736;9.092;2023-01-19T10:04:25;-0.70;99.90
8914;DHT22;4492;48.736;9.092;2023-01-19T10:06:56;-0.70;99.90
8914;DHT22;4492;48.736;9.092;2023-01-19T10:12:42;-0.70;99.90
8914;DHT22;4492;48.736;9.092;2023-01-19T10:15:14;-0.70;99.90
8914;DHT22;4492;48.736;9.092;2023-01-19T10:17:58;-0.70;99.90
8914;DHT22;4492;48.736;9.092;2023-01-19T10:20:32;-0.60;99.90
8914;DHT22;4492;48.736;9.092;2023-01-19T10:22:59;-0.50;99.90
8914;DHT22;4492;48.736;9.092;2023-01-19T10:25:26;-0.50;99.90
8914;DHT22;4492;48.736;9.092;2023-01-19T10:27:52;-0.40;99.90
8914;DHT22;4492;48.736;9.092;2023-01-19T10:30:22;-0.40;99.90
8914;DHT22;4492;48.736;9.092;2023-01-19T10:32:51;-0.20;99.90
8914;DHT22;4492;48.736;9.092;2023-01-19T10:35:20;-0.10;99.90
8914;DHT22;4492;48.736;9.092;2023-01-19T10:37:55;-0.10;99.90
8914;DHT22;4492;48.736;9.092;2023-01-19T10:40:33;0.00;99.90
8914;DHT22;4492;48.736;9.092;2023-01-19T10:43:00;0.00;99.90
8914;DHT22;4492;48.736;9.092;2023-01-19T10:45:28;0.00;99.90
8914;DHT22;4492;48.736;9.092;2023-01-19T10:47:58;0.10;99.90
8914;DHT22;4492;48.736;9.092;2023-01-19T10:50:34;0.10;99.90
8914;DHT22;4492;48.736;9.092;2023-01-19T10:53:03;0.10;99.90
8914;DHT22;4492;48.736;9.092;2023-01-19T10:55:34;0.10;99.90
8914;DHT22;4492;48.736;9.092;2023-01-19T10:58:02;0.00;99.90
8914;DHT22;4492;48.736;9.092;2023-01-19T11:00:38;0.00;99.90
8914;DHT22;4492;48.736;9.092;2023-01-19T11:03:27;0.00;99.90
8914;DHT22;4492;48.736;9.092;2023-01-19T11:05:53;0.10;99.90
8914;DHT22;4492;48.736;9.092;2023-01-19T11:08:27;0.20;99.90
8914;DHT22;4492;48.736;9.092;2023-01-19T11:11:02;0.20;99.90
8914;DHT22;4492;48.736;9.092;2023-01-19T11:13:28;0.30;99.90
8914;DHT22;4492;48.736;9.092;2023-01-19T11:15:57;0.40;99.90
8914;DHT22;4492;48.736;9.092;2023-01-19T11:18:35;0.60;99.90
8914;DHT22;4492;48.736;9.092;2023-01-19T11:21:06;0.80;99.90
8914;DHT22;4492;48.736;9.092;2023-01-19T11:23:41;0.90;99.90
8914;DHT22;4492;48.736;9.092;2023-01-19T11:26:14;0.70;99.90
8914;DHT22;4492;48.736;9.092;2023-01-19T11:28:47;0.70;99.90
8914;DHT22;4492;48.736;9.092;2023-01-19T11:31:18;0.60;99.90
8914;DHT22;4492;48.736;9.092;2023-01-19T11:33:48;0.60;99.90
8914;DHT22;4492;48.736;9.092;2023-01-19T11:36:20;0.50;99.90
8914;DHT22;4492;48.736;9.092;2023-01-19T11:38:48;0.40;99.90
8914;DHT22;4492;48.736;9.092;2023-01-19T11:41:34;0.40;99.90
8914;DHT22;4492;48.736;9.092;2023-01-19T11:44:17;0.20;99.90
8914;DHT22;4492;48.736;9.092;2023-01-19T11:46:46;0.20;99.90
8914;DHT22;4492;48.736;9.092;2023-01-19T11:49:37;0.30;99.90
8914;DHT22;4492;48.736;9.092;2023-01-19T11:55:04;0.60;99.90
8914;DHT22;4492;48.736;9.092;2023-01-19T11:57:31;0.70;99.90
8914;DHT22;4492;48.736;9.092;2023-01-19T12:00:24;0.90;99.90
8914;DHT22;4492;48.736;9.092;2023-01-19T12:02:54;1.00;99.90
8914;DHT22;4492;48.736;9.092;2023-01-19T12:05:25;1.00;99.90
8914;DHT22;4492;48.736;9.092;2023-01-19T12:07:51;0.90;99.90
8914;DHT22;4492;48.736;9.092;2023-01-19T12:10:29;0.90;99.90
8914;DHT22;4492;48.736;9.092;2023-01-19T12:12:57;0.80;99.90
8914;DHT22;4492;48.736;9.092;2023-01-19T12:15:34;0.80;99.90
8914;DHT22;4492;48.736;9.092;2023-01-19T12:18:02;0.70;99.90
8914;DHT22;4492;48.736;9.092;2023-01-19T12:20:42;0.70;99.90
8914;DHT22;4492;48.736;9.092;2023-01-19T12:23:43;0.70;99.90
8914;DHT22;4492;48.736;9.092;2023-01-19T12:26:25;0.70;99.90
8914;DHT22;4492;48.736;9.092;2023-01-19T12:28:55;0.60;99.90
8914;DHT22;4492;48.736;9.092;2023-01-19T12:31:23;0.60;99.90
8914;DHT22;4492;48.736;9.092;2023-01-19T12:33:49;0.70;99.90
8914;DHT22;4492;48.736;9.092;2023-01-19T12:38:49;0.70;99.90
8914;DHT22;4492;48.736;9.092;2023-01-19T12:46:58;0.80;99.90
8914;DHT22;4492;48.736;9.092;2023-01-19T12:49:47;0.80;99.90
8914;DHT22;4492;48.736;9.092;2023-01-19T12:52:32;0.80;99.90
8914;DHT22;4492;48.736;9.092;2023-01-19T12:58:01;0.70;99.90
8914;DHT22;4492;48.736;9.092;2023-01-19T13:00:38;0.70;99.90
8914;DHT22;4492;48.736;9.092;2023-01-19T13:05:55;0.60;99.90
8914;DHT22;4492;48.736;9.092;2023-01-19T13:08:59;0.50;99.90
8914;DHT22;4492;48.736;9.092;2023-01-19T13:11:25;0.50;99.90
8914;DHT22;4492;48.736;9.092;2023-01-19T13:21:40;0.50;99.90
8914;DHT22;4492;48.736;9.092;2023-01-19T13:24:13;0.50;99.90
8914;DHT22;4492;48.736;9.092;2023-01-19T13:26:52;0.50;99.90
8914;DHT22;4492;48.736;9.092;2023-01-19T13:29:33;0.50;99.90
8914;DHT22;4492;48.736;9.092;2023-01-19T13:32:02;0.50;99.90
8914;DHT22;4492;48.736;9.092;2023-01-19T13:37:05;0.40;99.90
8914;DHT22;4492;48.736;9.092;2023-01-19T13:39:40;0.40;99.90
8914;DHT22;4492;48.736;9.092;2023-01-19T13:44:58;0.40;99.90
8914;DHT22;4492;48.736;9.092;2023-01-19T13:47:38;0.30;99.90
8914;DHT22;4492;48.736;9.092;2023-01-19T13:50:13;0.30;99.90
8914;DHT22;4492;48.736;9.092;2023-01-19T13:52:42;0.30;99.90
8914;DHT22;4492;48.736;9.092;2023-01-19T13:55:13;0.30;99.90
8914;DHT22;4492;48.736;9.092;2023-01-19T13:57:40;0.20;99.90
8914;DHT22;4492;48.736;9.092;2023-01-19T14:02:59;0.20;99.90
8914;DHT22;4492;48.736;9.092;2023-01-19T14:05:37;0.20;99.90
8914;DHT22;4492;48.736;9.092;2023-01-19T14:10:40;0.10;99.90
8914;DHT22;4492;48.736;9.092;2023-01-19T14:13:17;0.10;99.90
8914;DHT22;4492;48.736;9.092;2023-01-19T14:15:44;0.10;99.90
8914;DHT22;4492;48.736;9.092;2023-01-19T14:20:38;0.10;99.90
8914;DHT22;4492;48.736;9.092;2023-01-19T14:23:06;0.10;99.90
8914;DHT22;4492;48.736;9.092;2023-01-19T14:25:51;0.10;99.90
8914;DHT22;4492;48.736;9.092;2023-01-19T14:28:35;0.10;99.90
8914;DHT22;4492;48.736;9.092;2023-01-19T14:31:21;0.10;99.90
8914;DHT22;4492;48.736;9.092;2023-01-19T14:33:50;0.10;99.90
8914;DHT22;4492;48.736;9.092;2023-01-19T14:38:47;0.10;99.90
8914;DHT22;4492;48.736;9.092;2023-01-19T14:41:44;0.00;99.90
8914;DHT22;4492;48.736;9.092;2023-01-19T14:47:02;0.00;99.90
8914;DHT22;4492;48.736;9.092;2023-01-19T14:49:34;0.10;99.90
8914;DHT22;4492;48.736;9.092;2023-01-19T14:54:51;0.00;99.90
8914;DHT22;4492;48.736;9.092;2023-01-19T14:57:18;0.00;99.90
8914;DHT22;4492;48.736;9.092;2023-01-19T14:59:43;-0.10;99.90
8914;DHT22;4492;48.736;9.092;2023-01-19T15:02:12;-0.10;99.90
8914;DHT22;4492;48.736;9.092;2023-01-19T15:04:38;-0.10;99.90
8914;DHT22;4492;48.736;9.092;2023-01-19T15:07:03;0.00;99.90
8914;DHT22;4492;48.736;9.092;2023-01-19T15:09:30;-0.10;99.90
8914;DHT22;4492;48.736;9.092;2023-01-19T15:11:55;0.00;99.90
8914;DHT22;4492;48.736;9.092;2023-01-19T15:14:21;0.00;99.90
8914;DHT22;4492;48.736;9.092;2023-01-19T15:16:47;0.00;99.90
8914;DHT22;4492;48.736;9.092;2023-01-19T15:19:15;0.00;99.90
8914;DHT22;4492;48.736;9.092;2023-01-19T15:21:41;0.00;99.90
8914;DHT22;4492;48.736;9.092;2023-01-19T15:24:09;0.00;99.90
8914;DHT22;4492;48.736;9.092;2023-01-19T15:26:37;0.00;99.90
8914;DHT22;4492;48.736;9.092;2023-01-19T15:29:15;-0.10;99.90
8914;DHT22;4492;48.736;9.092;2023-01-19T15:31:41;-0.10;99.90
8914;DHT22;4492;48.736;9.092;2023-01-19T15:34:10;-0.10;99.90
8914;DHT22;4492;48.736;9.092;2023-01-19T15:36:36;-0.10;99.90
8914;DHT22;4492;48.736;9.092;2023-01-19T15:39:01;-0.10;99.90
8914;DHT22;4492;48.736;9.092;2023-01-19T15:41:28;-0.20;99.90
8914;DHT22;4492;48.736;9.092;2023-01-19T15:43:57;-0.10;99.90
8914;DHT22;4492;48.736;9.092;2023-01-19T15:46:23;-0.20;99.90
8914;DHT22;4492;48.736;9.092;2023-01-19T15:48:50;-0.10;99.90
8914;DHT22;4492;48.736;9.092;2023-01-19T15:51:18;-0.20;99.90
8914;DHT22;4492;48.736;9.092;2023-01-19T15:53:44;-0.20;99.90
8914;DHT22;4492;48.736;9.092;2023-01-19T15:56:14;-0.20;99.90
8914;DHT22;4492;48.736;9.092;2023-01-19T15:58:41;-0.20;99.90
8914;DHT22;4492;48.736;9.092;2023-01-19T16:01:11;-0.20;99.90
8914;DHT22;4492;48.736;9.092;2023-01-19T16:03:37;-0.20;99.90
8914;DHT22;4492;48.736;9.092;2023-01-19T16:06:03;-0.20;99.90
8914;DHT22;4492;48.736;9.092;2023-01-19T16:08:29;-0.20;99.90
8914;DHT22;4492;48.736;9.092;2023-01-19T16:10:54;-0.20;99.90
8914;DHT22;4492;48.736;9.092;2023-01-19T16:13:20;-0.20;99.90
8914;DHT22;4492;48.736;9.092;2023-01-19T16:15:46;-0.20;99.90
8914;DHT22;4492;48.736;9.092;2023-01-19T16:18:11;-0.20;99.90
8914;DHT22;4492;48.736;9.092;2023-01-19T16:20:37;-0.30;99.90
8914;DHT22;4492;48.736;9.092;2023-01-19T16:23:03;-0.30;99.90
8914;DHT22;4492;48.736;9.092;2023-01-19T16:25:28;-0.30;99.90
8914;DHT22;4492;48.736;9.092;2023-01-19T16:27:55;-0.30;99.90
8914;DHT22;4492;48.736;9.092;2023-01-19T16:30:21;-0.30;99.90
8914;DHT22;4492;48.736;9.092;2023-01-19T16:32:47;-0.30;99.90
8914;DHT22;4492;48.736;9.092;2023-01-19T16:35:12;-0.40;99.90
8914;DHT22;4492;48.736;9.092;2023-01-19T16:37:40;-0.40;99.90
8914;DHT22;4492;48.736;9.092;2023-01-19T16:40:06;-0.40;99.90
8914;DHT22;4492;48.736;9.092;2023-01-19T16:42:32;-0.50;99.90
8914;DHT22;4492;48.736;9.092;2023-01-19T16:44:57;-0.50;99.90
8914;DHT22;4492;48.736;9.092;2023-01-19T16:47:23;-0.50;99.90
8914;DHT22;4492;48.736;9.092;2023-01-19T16:49:49;-0.60;99.90
8914;DHT22;4492;48.736;9.092;2023-01-19T16:52:14;-0.70;99.90
8914;DHT22;4492;48.736;9.092;2023-01-19T16:54:41;-0.70;99.90
8914;DHT22;4492;48.736;9.092;2023-01-19T16:57:08;-0.70;99.90
8914;DHT22;4492;48.736;9.092;2023-01-19T16:59:34;-0.70;99.90
8914;DHT22;4492;48.736;9.092;2023-01-19T17:02:00;-0.70;99.90
8914;DHT22;4492;48.736;9.092;2023-01-19T17:04:25;-0.80;99.90
8914;DHT22;4492;48.736;9.092;2023-01-19T17:06:52;-0.70;99.90
8914;DHT22;4492;48.736;9.092;2023-01-19T17:09:18;-0.70;99.90
8914;DHT22;4492;48.736;9.092;2023-01-19T17:11:43;-0.70;99.90
8914;DHT22;4492;48.736;9.092;2023-01-19T17:14:15;-0.80;99.90
8914;DHT22;4492;48.736;9.092;2023-01-19T17:16:41;-0.80;99.90
8914;DHT22;4492;48.736;9.092;2023-01-19T17:19:09;-0.80;99.90
8914;DHT22;4492;48.736;9.092;2023-01-19T17:21:36;-0.80;99.90
8914;DHT22;4492;48.736;9.092;2023-01-19T17:24:03;-0.80;99.90
8914;DHT22;4492;48.736;9.092;2023-01-19T17:26:28;-0.80;99.90
8914;DHT22;4492;48.736;9.092;2023-01-19T17:28:59;-0.80;99.90
8914;DHT22;4492;48.736;9.092;2023-01-19T17:31:25;-0.80;99.90
8914;DHT22;4492;48.736;9.092;2023-01-19T17:33:50;-0.80;99.90
8914;DHT22;4492;48.736;9.092;2023-01-19T17:36:19;-0.70;99.90
8914;DHT22;4492;48.736;9.092;2023-01-19T17:38:47;-0.60;99.90